TimeCST,TemperatureF,Dew PointF,Humidity,Sea Level PressureIn,VisibilityMPH,Wind Direction,Wind SpeedMPH,Gust SpeedMPH,PrecipitationIn,Events,Conditions,WindDirDegrees,DateUTC
12:15 AM,5.0,-1.3,75,30.30,10.0,West,9.2,-,N/A,,Clear,280,2013-01-22 06:15:00
12:35 AM,5.4,-1.3,74,30.30,10.0,WNW,10.4,-,N/A,,Clear,290,2013-01-22 06:35:00
12:55 AM,5.4,-1.3,74,30.30,10.0,West,10.4,-,N/A,,Clear,280,2013-01-22 06:55:00
1:15 AM,5.4,-1.3,74,30.30,10.0,WNW,11.5,17.3,N/A,,Clear,290,2013-01-22 07:15:00
1:35 AM,5.0,-1.5,75,30.30,10.0,WNW,10.4,-,N/A,,Scattered Clouds,290,2013-01-22 07:35:00
1:55 AM,5.0,-1.5,75,30.31,10.0,WNW,9.2,-,N/A,,Scattered Clouds,290,2013-01-22 07:55:00
2:15 AM,4.8,-1.5,75,30.32,10.0,West,10.4,-,N/A,,Scattered Clouds,280,2013-01-22 08:15:00
2:35 AM,4.8,-1.5,75,30.33,10.0,West,9.2,-,N/A,,Scattered Clouds,280,2013-01-22 08:35:00
2:55 AM,4.5,-1.8,75,30.33,10.0,West,9.2,-,N/A,,Scattered Clouds,280,2013-01-22 08:55:00
3:15 AM,4.3,-1.7,76,30.33,10.0,WNW,9.2,-,N/A,,Scattered Clouds,290,2013-01-22 09:15:00
3:35 AM,4.1,-1.7,77,30.33,10.0,WNW,9.2,-,N/A,,Scattered Clouds,290,2013-01-22 09:35:00
3:55 AM,4.1,-3.5,71,30.33,10.0,WNW,10.4,-,N/A,,Scattered Clouds,300,2013-01-22 09:55:00
4:15 AM,3.4,-4.2,71,30.33,10.0,WNW,10.4,-,N/A,,Clear,300,2013-01-22 10:15:00
4:35 AM,3.0,-4.9,70,30.34,10.0,WNW,10.4,-,N/A,,Clear,300,2013-01-22 10:35:00
4:55 AM,2.8,-4.9,70,30.34,10.0,WNW,10.4,-,N/A,,Clear,300,2013-01-22 10:55:00
5:15 AM,2.5,-4.9,71,30.35,10.0,WNW,9.2,-,N/A,,Clear,290,2013-01-22 11:15:00
5:35 AM,2.3,-4.9,72,30.35,10.0,WNW,8.1,-,N/A,,Clear,290,2013-01-22 11:35:00
5:55 AM,2.3,-4.9,72,30.35,10.0,WNW,9.2,-,N/A,,Clear,290,2013-01-22 11:55:00
6:15 AM,2.1,-5.4,71,30.36,10.0,WNW,8.1,-,N/A,,Clear,290,2013-01-22 12:15:00
6:35 AM,1.4,-5.6,72,30.36,10.0,West,8.1,-,N/A,,Clear,280,2013-01-22 12:35:00
6:55 AM,1.4,-5.8,72,30.37,10.0,WNW,10.4,-,N/A,,Clear,290,2013-01-22 12:55:00
7:15 AM,1.0,-6.7,70,30.37,10.0,West,8.1,-,N/A,,Clear,280,2013-01-22 13:15:00
7:35 AM,1.4,-7.6,66,30.38,10.0,WNW,11.5,16.1,N/A,,Clear,290,2013-01-22 13:35:00
7:55 AM,1.8,-6.9,67,30.38,10.0,WNW,11.5,-,N/A,,Clear,300,2013-01-22 13:55:00
8:15 AM,2.3,-6.3,67,30.39,10.0,WNW,11.5,16.1,N/A,,Clear,290,2013-01-22 14:15:00
8:35 AM,3.0,-6.3,65,30.39,10.0,NW,13.8,-,N/A,,Clear,310,2013-01-22 14:35:00
8:55 AM,3.9,-6.0,64,30.40,10.0,WNW,13.8,-,N/A,,Clear,300,2013-01-22 14:55:00
9:15 AM,4.6,-5.8,62,30.40,10.0,WNW,10.4,-,N/A,,Clear,300,2013-01-22 15:15:00
9:35 AM,5.0,-5.8,61,30.41,10.0,WNW,11.5,17.3,N/A,,Clear,300,2013-01-22 15:35:00
9:55 AM,5.7,-5.6,60,30.41,10.0,WNW,12.7,-,N/A,,Clear,290,2013-01-22 15:55:00
10:15 AM,6.6,-5.3,58,30.41,10.0,West,11.5,18.4,N/A,,Clear,280,2013-01-22 16:15:00
10:35 AM,7.5,-5.3,56,30.41,10.0,NW,15.0,18.4,N/A,,Clear,310,2013-01-22 16:35:00
10:55 AM,8.1,-5.3,55,30.40,10.0,West,11.5,17.3,N/A,,Clear,280,2013-01-22 16:55:00
11:15 AM,9.1,-4.4,54,30.39,10.0,WNW,10.4,18.4,N/A,,Clear,290,2013-01-22 17:15:00
11:35 AM,9.7,-4.0,54,30.39,10.0,West,12.7,21.9,N/A,,Scattered Clouds,280,2013-01-22 17:35:00
11:55 AM,10.6,-3.8,52,30.39,10.0,WNW,13.8,-,N/A,,Scattered Clouds,290,2013-01-22 17:55:00
12:15 PM,10.8,-3.6,52,30.38,10.0,WNW,12.7,-,N/A,,Scattered Clouds,290,2013-01-22 18:15:00
12:35 PM,12.2,-2.2,53,30.37,10.0,West,13.8,20.7,N/A,,Scattered Clouds,270,2013-01-22 18:35:00
12:55 PM,12.0,-3.1,51,30.36,10.0,West,18.4,23.0,N/A,,Scattered Clouds,260,2013-01-22 18:55:00
1:15 PM,13.3,-2.9,49,30.36,10.0,WSW,15.0,25.3,N/A,,Scattered Clouds,250,2013-01-22 19:15:00
1:35 PM,13.3,-2.7,49,30.36,10.0,West,11.5,18.4,N/A,,Scattered Clouds,280,2013-01-22 19:35:00
1:55 PM,13.3,-2.2,50,30.36,10.0,West,18.4,24.2,N/A,,Scattered Clouds,260,2013-01-22 19:55:00
2:15 PM,13.5,-1.3,52,30.35,10.0,West,13.8,24.2,N/A,,Scattered Clouds,280,2013-01-22 20:15:00
2:35 PM,12.6,-2.2,52,30.35,10.0,West,11.5,-,N/A,,Clear,280,2013-01-22 20:35:00
2:55 PM,13.1,-1.5,52,30.35,10.0,West,11.5,18.4,N/A,,Clear,280,2013-01-22 20:55:00
3:15 PM,12.6,-1.8,53,30.35,10.0,WNW,12.7,-,N/A,,Clear,290,2013-01-22 21:15:00
3:35 PM,12.6,-1.5,54,30.34,10.0,NW,12.7,17.3,N/A,,Clear,310,2013-01-22 21:35:00
3:55 PM,12.9,-1.5,53,30.34,10.0,West,11.5,16.1,N/A,,Clear,280,2013-01-22 21:55:00
4:15 PM,12.7,-1.1,54,30.34,10.0,WNW,9.2,-,N/A,,Clear,290,2013-01-22 22:15:00
4:35 PM,12.2,-1.1,55,30.34,10.0,WNW,9.2,-,N/A,,Clear,290,2013-01-22 22:35:00
4:55 PM,12.6,-0.9,55,30.34,10.0,WNW,8.1,-,N/A,,Scattered Clouds,290,2013-01-22 22:55:00
5:15 PM,12.7,-1.1,54,30.34,10.0,WNW,9.2,-,N/A,,Mostly Cloudy,290,2013-01-22 23:15:00
5:35 PM,13.1,-0.4,55,30.34,10.0,WNW,8.1,-,N/A,,Mostly Cloudy,290,2013-01-22 23:35:00
5:55 PM,13.1,-0.8,54,30.33,10.0,WNW,8.1,-,N/A,,Overcast,290,2013-01-22 23:55:00
6:15 PM,13.3,-0.8,54,30.34,10.0,WNW,9.2,-,N/A,,Overcast,290,2013-01-23 00:15:00
6:35 PM,13.1,-0.9,54,30.34,10.0,WNW,6.9,-,N/A,,Overcast,290,2013-01-23 00:35:00
6:55 PM,13.1,-0.9,54,30.33,10.0,WNW,8.1,-,N/A,,Overcast,300,2013-01-23 00:55:00
7:15 PM,13.5,-0.6,54,30.33,10.0,WNW,8.1,-,N/A,,Overcast,290,2013-01-23 01:15:00
7:35 PM,13.5,-0.4,54,30.33,10.0,WNW,8.1,-,N/A,,Overcast,300,2013-01-23 01:35:00
7:55 PM,13.5,-0.4,54,30.34,10.0,West,9.2,-,N/A,,Overcast,280,2013-01-23 01:55:00
8:15 PM,13.6,-0.4,54,30.34,10.0,NW,9.2,-,N/A,,Overcast,310,2013-01-23 02:15:00
8:35 PM,13.5,-0.4,54,30.34,10.0,WNW,6.9,-,N/A,,Overcast,300,2013-01-23 02:35:00
8:55 PM,13.5,-0.4,54,30.34,10.0,WNW,6.9,-,N/A,,Overcast,300,2013-01-23 02:55:00
9:15 PM,13.5,-0.4,54,30.35,10.0,WNW,8.1,-,N/A,,Overcast,290,2013-01-23 03:15:00
9:35 PM,13.6,-0.0,55,30.35,10.0,WNW,6.9,-,N/A,,Overcast,290,2013-01-23 03:35:00
9:55 PM,13.6,0.3,55,30.35,10.0,WNW,6.9,-,N/A,,Overcast,290,2013-01-23 03:55:00
10:15 PM,13.6,0.5,56,30.34,10.0,West,6.9,-,N/A,,Overcast,280,2013-01-23 04:15:00
10:35 PM,14.0,1.4,57,30.34,10.0,West,8.1,-,N/A,,Overcast,270,2013-01-23 04:35:00
10:55 PM,13.8,0.7,56,30.35,10.0,West,8.1,-,N/A,,Overcast,270,2013-01-23 04:55:00
11:15 PM,13.3,0.7,57,30.35,10.0,West,6.9,-,N/A,,Mostly Cloudy,280,2013-01-23 05:15:00
11:35 PM,12.2,1.4,62,30.35,10.0,West,3.5,-,N/A,,Mostly Cloudy,280,2013-01-23 05:35:00
11:55 PM,11.8,1.9,65,30.34,10.0,West,4.6,-,N/A,,Overcast,270,2013-01-23 05:55:00